KIAD/IAD METAR and TAF weather

Enter ICAO airport designator
Station Type Date Time Source
KIAD METAR 2021/09/28 02:52 UTC NOAA

KIAD 280252Z 19009KT 10SM CLR 20/13 A2991 RMK AO2 SLP127 T02000128 58007


Station Type Date Time Source
KIAD Decoded METAR 2021/09/28 02:52 UTC NOAA

DULLES INTERNATIONAL AIRPORT, VA, United States (KIAD) 38-56N 077-27W 93M
Sep 27, 2021 - 10:52 PM EDT / 2021.09.28 0252 UTC
Wind: from the S (190 degrees) at 10 MPH (9 KT):0
Visibility: 10 mile(s):0
Sky conditions: clear
Temperature: 68.0 F (20.0 C)
Dew Point: 55.0 F (12.8 C)
Relative Humidity: 63%
Pressure (altimeter): 29.91 in. Hg (1012 hPa)
Pressure tendency: 0.02 inches (0.7 hPa) lower than three hours ago
ob: KIAD 280252Z 19009KT 10SM CLR 20/13 A2991 RMK AO2 SLP127 T02000128 58007
cycle: 3

Station Type Date Time Source
KIAD TAF 2021/09/28 03:58 UTC NOAA

TAF
AMD KIAD 280256Z 2803/2906 19009KT P6SM SKC
FM281400 23005KT P6SM SCT100
FM281700 26007KT P6SM VCTS SCT050CB
FM282300 32006KT P6SM SCT050
FM290200 36005KT P6SM SCT045
FM290300 01005KT P6SM SCT200

Example: see airport list